Time;durP1;ratioP1;P1;durP2;ratioP2;P2;SDS_P1;SDS_P2;PMS_P1;PMS_P2;Temp;Humidity;BMP_temperature;BMP_pressure;BME280_temperature;BME280_humidity;BME280_pressure;Samples;Min_cycle;Max_cycle;Signal;HPM_P1;HPM_P2
2022/09/03 00:00:33;;;;;;;2.05;1.00;;;;;;;;;;5091892;28;20020;-79
2022/09/03 00:03:03;;;;;;;6.32;1.13;;;;;;;;;;5091925;28;20091;-79
2022/09/03 00:05:36;;;;;;;3.60;0.90;;;;;;;;;;5091812;28;20016;-79
2022/09/03 00:08:05;;;;;;;2.78;1.00;;;;;;;;;;5094755;28;20028;-79
2022/09/03 00:10:39;;;;;;;2.17;0.95;;;;;;;;;;5095247;28;20040;-79
2022/09/03 00:13:07;;;;;;;2.45;1.00;;;;;;;;;;5095327;28;20024;-80
2022/09/03 00:15:34;;;;;;;2.30;0.93;;;;;;;;;;5095334;28;20032;-79
2022/09/03 00:18:21;;;;;;;4.30;1.00;;;;;;;;;;5095442;28;20077;-79
2022/09/03 00:20:51;;;;;;;4.47;1.10;;;;;;;;;;5095110;28;20150;-79
2022/09/03 00:23:22;;;;;;;1.63;1.13;;;;;;;;;;5095281;28;20024;-79
2022/09/03 00:25:57;;;;;;;2.55;1.08;;;;;;;;;;5095395;28;20029;-79
2022/09/03 00:28:26;;;;;;;4.75;1.20;;;;;;;;;;5095282;28;20432;-79
2022/09/03 00:31:07;;;;;;;2.42;0.90;;;;;;;;;;5077121;28;20028;-79
2022/09/03 00:33:35;;;;;;;5.63;1.23;;;;;;;;;;5095116;28;20031;-79
2022/09/03 00:36:01;;;;;;;1.88;0.90;;;;;;;;;;5095094;28;20301;-79
2022/09/03 00:38:28;;;;;;;4.90;1.00;;;;;;;;;;5095199;28;20067;-79
2022/09/03 00:40:54;;;;;;;4.38;1.00;;;;;;;;;;5094838;28;20523;-79
2022/09/03 00:43:38;;;;;;;6.45;1.05;;;;;;;;;;5094884;28;20176;-79
2022/09/03 00:46:15;;;;;;;2.35;1.02;;;;;;;;;;5076390;28;20123;-79
2022/09/03 00:49:01;;;;;;;3.42;0.98;;;;;;;;;;5094746;28;20108;-79
2022/09/03 00:51:36;;;;;;;2.00;0.90;;;;;;;;;;5095025;28;20038;-79
2022/09/03 00:54:25;;;;;;;5.03;0.80;;;;;;;;;;5094580;28;20028;-79
2022/09/03 00:56:52;;;;;;;2.40;0.90;;;;;;;;;;5093976;28;20347;-79
2022/09/03 00:59:36;;;;;;;6.63;0.98;;;;;;;;;;5094671;28;20132;-79
2022/09/03 01:02:16;;;;;;;1.83;1.00;;;;;;;;;;5102096;28;20027;-79
2022/09/03 01:04:42;;;;;;;2.50;1.00;;;;;;;;;;5096634;28;20038;-79
2022/09/03 01:07:15;;;;;;;3.67;0.82;;;;;;;;;;5114899;28;20020;-79
2022/09/03 01:09:41;;;;;;;5.45;1.15;;;;;;;;;;5114764;28;20046;-79
2022/09/03 01:12:13;;;;;;;6.38;1.10;;;;;;;;;;5114805;28;20019;-79
2022/09/03 01:14:45;;;;;;;2.33;0.90;;;;;;;;;;5114769;28;20023;-79
2022/09/03 01:17:17;;;;;;;2.67;1.10;;;;;;;;;;5114792;28;20023;-79
2022/09/03 01:19:55;;;;;;;1.42;0.80;;;;;;;;;;5113894;28;20028;-79
2022/09/03 01:22:34;;;;;;;3.83;1.10;;;;;;;;;;5114246;28;20019;-79
2022/09/03 01:25:00;;;;;;;3.75;0.80;;;;;;;;;;5114558;28;20473;-79
2022/09/03 01:27:45;;;;;;;1.75;0.90;;;;;;;;;;5114461;28;20130;-79
2022/09/03 01:30:16;;;;;;;1.75;0.80;;;;;;;;;;5114357;28;20026;-79
2022/09/03 01:33:00;;;;;;;2.65;1.00;;;;;;;;;;5114350;28;20016;-79
2022/09/03 01:35:45;;;;;;;4.03;1.05;;;;;;;;;;5114290;28;20023;-79
2022/09/03 01:38:26;;;;;;;2.03;0.85;;;;;;;;;;5094051;28;20144;-79
2022/09/03 01:40:52;;;;;;;4.75;0.90;;;;;;;;;;5104837;28;20063;-79
2022/09/03 01:43:24;;;;;;;3.35;1.15;;;;;;;;;;5114264;28;20028;-79
2022/09/03 01:46:02;;;;;;;3.20;1.05;;;;;;;;;;5114061;28;20026;-79
2022/09/03 01:48:40;;;;;;;3.90;1.00;;;;;;;;;;5114086;28;20024;-79
2022/09/03 01:51:06;;;;;;;6.20;0.90;;;;;;;;;;5114354;28;20027;-79
2022/09/03 01:53:35;;;;;;;2.40;0.88;;;;;;;;;;5113842;28;20544;-79
2022/09/03 01:56:22;;;;;;;3.00;1.05;;;;;;;;;;5113820;28;20439;-79
2022/09/03 01:58:59;;;;;;;2.72;0.70;;;;;;;;;;5113753;28;20158;-80
2022/09/03 02:01:29;;;;;;;4.75;0.90;;;;;;;;;;5113786;28;20480;-79
2022/09/03 02:03:58;;;;;;;5.70;0.93;;;;;;;;;;5113698;28;20432;-79
2022/09/03 02:06:25;;;;;;;2.83;1.02;;;;;;;;;;5113702;28;20099;-80
2022/09/03 02:08:51;;;;;;;3.15;1.27;;;;;;;;;;5113543;28;20099;-79
2022/09/03 02:11:17;;;;;;;5.97;1.00;;;;;;;;;;5113729;28;20116;-79
2022/09/03 02:13:51;;;;;;;2.25;0.75;;;;;;;;;;5095174;28;20411;-79
2022/09/03 02:16:26;;;;;;;6.18;0.95;;;;;;;;;;5113507;28;20088;-79
2022/09/03 02:18:55;;;;;;;2.95;0.95;;;;;;;;;;5112590;28;20019;-80
2022/09/03 02:21:23;;;;;;;1.45;0.70;;;;;;;;;;5092827;28;20103;-79
2022/09/03 02:23:50;;;;;;;1.80;0.90;;;;;;;;;;5092989;28;20427;-79
2022/09/03 02:26:18;;;;;;;3.50;0.80;;;;;;;;;;5074382;28;20100;-79
2022/09/03 02:28:44;;;;;;;1.83;1.08;;;;;;;;;;5092880;28;20028;-79
2022/09/03 02:31:11;;;;;;;17.83;1.23;;;;;;;;;;5091926;28;20024;-79
2022/09/03 02:33:38;;;;;;;2.17;0.80;;;;;;;;;;5092553;28;20103;-79
2022/09/03 02:36:06;;;;;;;1.67;0.90;;;;;;;;;;5092699;28;20024;-79
2022/09/03 02:38:32;;;;;;;4.20;1.00;;;;;;;;;;5092655;28;20031;-79
2022/09/03 02:40:58;;;;;;;3.00;1.05;;;;;;;;;;5092713;28;20021;-79
2022/09/03 02:43:27;;;;;;;7.70;1.08;;;;;;;;;;5092492;28;20378;-79
2022/09/03 02:45:59;;;;;;;3.70;0.77;;;;;;;;;;5092444;28;20305;-79
2022/09/03 02:48:26;;;;;;;2.33;1.13;;;;;;;;;;5092605;28;20024;-79
2022/09/03 02:50:52;;;;;;;2.22;0.90;;;;;;;;;;5092506;28;20027;-79
2022/09/03 02:53:19;;;;;;;1.92;1.02;;;;;;;;;;5092451;28;20035;-79
2022/09/03 02:55:45;;;;;;;1.80;0.90;;;;;;;;;;5074444;28;20388;-79
2022/09/03 02:58:11;;;;;;;1.80;1.10;;;;;;;;;;5092421;28;20027;-79
2022/09/03 03:00:37;;;;;;;2.75;0.80;;;;;;;;;;5092368;28;20024;-79
2022/09/03 03:03:04;;;;;;;5.20;1.08;;;;;;;;;;5092375;28;20021;-79
2022/09/03 03:05:50;;;;;;;2.13;0.88;;;;;;;;;;5092487;28;20028;-79
2022/09/03 03:08:20;;;;;;;7.53;0.80;;;;;;;;;;5092079;28;20174;-79
2022/09/03 03:10:48;;;;;;;1.63;0.80;;;;;;;;;;5092138;28;20036;-79
2022/09/03 03:13:14;;;;;;;2.50;0.90;;;;;;;;;;5092295;28;20074;-79
2022/09/03 03:15:40;;;;;;;2.38;1.05;;;;;;;;;;5092178;28;20145;-79
2022/09/03 03:18:06;;;;;;;1.23;0.65;;;;;;;;;;5092239;28;20194;-79
2022/09/03 03:20:33;;;;;;;4.38;0.95;;;;;;;;;;5074042;28;20024;-79
2022/09/03 03:23:02;;;;;;;3.03;0.93;;;;;;;;;;5092140;28;20020;-79
2022/09/03 03:25:28;;;;;;;5.07;0.80;;;;;;;;;;5092043;28;20042;-79
2022/09/03 03:27:55;;;;;;;6.38;1.17;;;;;;;;;;5092084;28;20078;-79
2022/09/03 03:30:22;;;;;;;1.60;1.00;;;;;;;;;;5092149;28;20027;-79
2022/09/03 03:32:48;;;;;;;2.08;0.88;;;;;;;;;;5073756;28;20381;-79
2022/09/03 03:35:14;;;;;;;3.50;1.00;;;;;;;;;;5092066;28;20370;-79
2022/09/03 03:37:40;;;;;;;2.00;1.00;;;;;;;;;;5091782;28;20023;-79
2022/09/03 03:40:06;;;;;;;4.60;0.90;;;;;;;;;;5096783;28;20016;-79
2022/09/03 03:42:33;;;;;;;2.53;0.90;;;;;;;;;;5114743;28;20102;-79
2022/09/03 03:45:01;;;;;;;2.65;0.68;;;;;;;;;;5116348;28;20036;-79
2022/09/03 03:47:27;;;;;;;2.20;1.08;;;;;;;;;;5116460;28;20020;-79
2022/09/03 03:49:53;;;;;;;2.85;1.20;;;;;;;;;;5116221;28;20119;-80
2022/09/03 03:52:19;;;;;;;2.38;0.82;;;;;;;;;;5116615;28;20438;-80
2022/09/03 03:54:48;;;;;;;4.88;0.80;;;;;;;;;;5116056;28;20160;-79
2022/09/03 03:57:14;;;;;;;3.05;0.80;;;;;;;;;;5115945;28;20020;-79
2022/09/03 03:59:40;;;;;;;5.90;0.90;;;;;;;;;;5115980;28;20462;-79
2022/09/03 04:02:06;;;;;;;5.90;0.95;;;;;;;;;;5115986;28;20024;-79
2022/09/03 04:04:32;;;;;;;2.72;0.80;;;;;;;;;;5115974;28;20016;-79
2022/09/03 04:06:58;;;;;;;5.25;0.85;;;;;;;;;;5116008;28;20028;-79
2022/09/03 04:09:24;;;;;;;6.82;1.15;;;;;;;;;;5115587;28;20067;-79
2022/09/03 04:11:50;;;;;;;5.85;0.80;;;;;;;;;;5116047;28;20028;-80
2022/09/03 04:14:17;;;;;;;1.40;0.70;;;;;;;;;;5097395;28;20093;-79
2022/09/03 04:16:45;;;;;;;5.55;1.00;;;;;;;;;;5115724;28;20481;-79
2022/09/03 04:19:11;;;;;;;3.85;1.05;;;;;;;;;;5115766;28;20027;-79
2022/09/03 04:21:38;;;;;;;5.70;0.98;;;;;;;;;;5115819;28;20097;-79
2022/09/03 04:24:04;;;;;;;1.48;0.70;;;;;;;;;;5115686;28;20039;-79
2022/09/03 04:26:31;;;;;;;4.43;0.93;;;;;;;;;;5115569;28;20410;-79
2022/09/03 04:28:59;;;;;;;2.08;0.80;;;;;;;;;;5115662;28;20019;-79
2022/09/03 04:31:26;;;;;;;4.95;0.88;;;;;;;;;;5097061;28;20420;-79
2022/09/03 04:33:53;;;;;;;6.07;1.00;;;;;;;;;;5115491;28;20050;-79
2022/09/03 04:36:21;;;;;;;4.10;0.82;;;;;;;;;;5115367;28;20022;-80
2022/09/03 04:38:47;;;;;;;1.63;0.80;;;;;;;;;;5115377;28;20016;-79
2022/09/03 04:41:18;;;;;;;1.67;0.90;;;;;;;;;;5115402;28;20110;-79
2022/09/03 04:43:45;;;;;;;1.52;0.73;;;;;;;;;;5115254;28;20038;-79
2022/09/03 04:46:12;;;;;;;5.18;1.02;;;;;;;;;;5115292;28;20027;-79
2022/09/03 04:48:39;;;;;;;1.73;0.88;;;;;;;;;;5115170;28;20106;-79
2022/09/03 04:51:06;;;;;;;4.50;0.70;;;;;;;;;;5115437;28;20496;-80
2022/09/03 04:53:36;;;;;;;1.75;0.90;;;;;;;;;;5114119;28;20500;-79
2022/09/03 04:56:03;;;;;;;1.33;0.80;;;;;;;;;;5115113;28;20119;-80
2022/09/03 04:58:29;;;;;;;1.88;0.90;;;;;;;;;;5115104;28;20033;-80
2022/09/03 05:00:55;;;;;;;2.80;1.05;;;;;;;;;;5114912;28;20197;-79
2022/09/03 05:03:21;;;;;;;1.63;0.77;;;;;;;;;;5096245;28;20024;-79
2022/09/03 05:05:54;;;;;;;1.73;0.80;;;;;;;;;;5094582;28;20481;-79
2022/09/03 05:08:21;;;;;;;1.90;0.80;;;;;;;;;;5094679;28;20032;-79
2022/09/03 05:10:47;;;;;;;2.78;0.73;;;;;;;;;;5094453;28;20161;-79
2022/09/03 05:13:13;;;;;;;4.88;0.75;;;;;;;;;;5094394;28;20032;-79
2022/09/03 05:15:42;;;;;;;3.28;1.00;;;;;;;;;;5094524;28;20476;-79
2022/09/03 05:18:08;;;;;;;1.35;0.75;;;;;;;;;;5094480;28;20027;-79
2022/09/03 05:20:34;;;;;;;9.00;1.00;;;;;;;;;;5094086;28;20016;-79
2022/09/03 05:23:03;;;;;;;6.55;1.00;;;;;;;;;;5094000;28;20028;-79
2022/09/03 05:25:32;;;;;;;4.30;1.00;;;;;;;;;;5075782;28;20123;-79
2022/09/03 05:27:58;;;;;;;2.28;0.90;;;;;;;;;;5093946;28;20081;-79
2022/09/03 05:30:25;;;;;;;2.58;0.93;;;;;;;;;;5094125;28;20031;-80
2022/09/03 05:32:51;;;;;;;4.32;0.77;;;;;;;;;;5094011;28;20024;-80
2022/09/03 05:35:17;;;;;;;5.65;0.90;;;;;;;;;;5093602;28;20032;-79
2022/09/03 05:37:43;;;;;;;6.18;0.75;;;;;;;;;;5093895;28;20176;-79
2022/09/03 05:40:10;;;;;;;1.75;0.80;;;;;;;;;;5093516;28;20180;-80
2022/09/03 05:42:37;;;;;;;6.82;0.80;;;;;;;;;;5093642;28;20029;-80
2022/09/03 05:45:08;;;;;;;3.35;1.10;;;;;;;;;;5093653;28;20055;-80
2022/09/03 05:47:35;;;;;;;3.55;0.63;;;;;;;;;;5093694;28;20024;-80
2022/09/03 05:50:01;;;;;;;4.43;0.77;;;;;;;;;;5093523;28;20027;-80
2022/09/03 05:52:27;;;;;;;4.03;0.85;;;;;;;;;;5093779;28;20043;-80
2022/09/03 05:54:53;;;;;;;1.80;0.70;;;;;;;;;;5093382;28;20036;-79
2022/09/03 05:57:19;;;;;;;2.00;0.73;;;;;;;;;;5093293;28;20459;-79
2022/09/03 05:59:45;;;;;;;6.13;0.70;;;;;;;;;;5093314;28;20020;-79
2022/09/03 06:02:11;;;;;;;5.93;0.75;;;;;;;;;;5093331;28;20020;-79
2022/09/03 06:04:37;;;;;;;2.45;0.77;;;;;;;;;;5093076;28;20020;-80
2022/09/03 06:07:03;;;;;;;3.95;0.90;;;;;;;;;;5093039;28;20032;-79
2022/09/03 06:09:29;;;;;;;3.60;1.23;;;;;;;;;;5092998;28;20091;-80
2022/09/03 06:11:55;;;;;;;2.42;0.60;;;;;;;;;;5093003;28;20143;-80
2022/09/03 06:14:21;;;;;;;2.60;0.60;;;;;;;;;;5092971;28;20065;-80
2022/09/03 06:16:48;;;;;;;5.50;1.08;;;;;;;;;;5093106;28;20016;-80
2022/09/03 06:19:14;;;;;;;4.63;0.75;;;;;;;;;;5096401;28;20022;-80
2022/09/03 06:21:42;;;;;;;3.42;1.08;;;;;;;;;;5113363;28;20119;-80
2022/09/03 06:24:10;;;;;;;2.28;0.80;;;;;;;;;;5113213;28;20024;-79
2022/09/03 06:26:37;;;;;;;2.85;0.80;;;;;;;;;;5113292;28;20055;-79
2022/09/03 06:29:03;;;;;;;1.85;0.70;;;;;;;;;;5113240;28;20024;-79
2022/09/03 06:31:29;;;;;;;4.75;0.90;;;;;;;;;;5113178;28;20088;-80
2022/09/03 06:33:56;;;;;;;8.98;0.73;;;;;;;;;;5113069;28;20030;-80
2022/09/03 06:36:22;;;;;;;5.30;1.00;;;;;;;;;;5113165;28;20377;-80
2022/09/03 06:38:51;;;;;;;1.88;0.60;;;;;;;;;;5094658;28;20407;-80
2022/09/03 06:41:19;;;;;;;5.72;0.80;;;;;;;;;;5113216;28;20020;-80
2022/09/03 06:43:46;;;;;;;2.88;0.90;;;;;;;;;;5113068;28;20074;-80
2022/09/03 06:46:13;;;;;;;4.25;0.70;;;;;;;;;;5112993;28;20023;-80
2022/09/03 06:48:40;;;;;;;2.45;1.00;;;;;;;;;;5113096;28;20423;-80
2022/09/03 06:51:07;;;;;;;2.63;0.80;;;;;;;;;;5112988;28;20042;-80
2022/09/03 06:53:35;;;;;;;6.32;0.80;;;;;;;;;;5112500;28;20108;-80
2022/09/03 06:56:03;;;;;;;8.15;1.05;;;;;;;;;;5112668;28;20016;-80
2022/09/03 06:58:36;;;;;;;1.63;0.70;;;;;;;;;;5112802;28;20043;-80
2022/09/03 07:01:06;;;;;;;1.30;0.70;;;;;;;;;;5112877;28;20026;-80
2022/09/03 07:03:32;;;;;;;4.40;0.80;;;;;;;;;;5092678;28;20028;-80
2022/09/03 07:06:02;;;;;;;4.90;0.70;;;;;;;;;;5073946;28;20500;-80
2022/09/03 07:08:29;;;;;;;2.28;0.80;;;;;;;;;;5092148;28;20077;-80
2022/09/03 07:10:55;;;;;;;4.22;0.95;;;;;;;;;;5092291;28;20051;-80
2022/09/03 07:13:21;;;;;;;2.60;0.80;;;;;;;;;;5092241;28;20094;-80
2022/09/03 07:15:47;;;;;;;1.52;0.75;;;;;;;;;;5091718;28;20020;-80
2022/09/03 07:18:13;;;;;;;5.65;0.90;;;;;;;;;;5091841;28;20103;-80
2022/09/03 07:20:39;;;;;;;3.55;0.80;;;;;;;;;;5092184;28;20021;-80
2022/09/03 07:23:05;;;;;;;5.90;1.00;;;;;;;;;;5092031;28;20024;-80
2022/09/03 07:25:31;;;;;;;2.65;1.08;;;;;;;;;;5092078;28;20016;-80
2022/09/03 07:27:58;;;;;;;6.57;0.90;;;;;;;;;;5092021;28;20039;-80
2022/09/03 07:30:25;;;;;;;2.05;0.80;;;;;;;;;;5092162;28;20026;-80
2022/09/03 07:32:52;;;;;;;6.03;0.90;;;;;;;;;;5092149;28;20070;-80
2022/09/03 07:35:18;;;;;;;5.43;0.98;;;;;;;;;;5092192;28;20031;-80
2022/09/03 07:37:45;;;;;;;3.38;0.65;;;;;;;;;;5092388;28;20038;-80
2022/09/03 07:40:11;;;;;;;4.93;0.73;;;;;;;;;;5097175;28;20058;-80
2022/09/03 07:42:38;;;;;;;5.45;0.70;;;;;;;;;;5112372;28;20024;-80
2022/09/03 07:45:08;;;;;;;7.32;0.88;;;;;;;;;;5112283;28;20023;-80
2022/09/03 07:47:35;;;;;;;3.53;0.82;;;;;;;;;;5112568;28;20038;-80
2022/09/03 07:50:01;;;;;;;2.88;0.98;;;;;;;;;;5112545;28;20067;-80
2022/09/03 07:52:27;;;;;;;2.88;0.73;;;;;;;;;;5112883;28;20092;-80
2022/09/03 07:54:53;;;;;;;4.13;0.90;;;;;;;;;;5112256;28;20063;-80
2022/09/03 07:57:19;;;;;;;3.42;0.90;;;;;;;;;;5112415;28;20073;-80
2022/09/03 07:59:45;;;;;;;3.08;0.90;;;;;;;;;;5112223;28;20024;-80
2022/09/03 08:02:11;;;;;;;15.57;1.42;;;;;;;;;;5112384;28;20019;-80
2022/09/03 08:04:37;;;;;;;5.07;0.93;;;;;;;;;;5112095;28;20024;-80
2022/09/03 08:07:04;;;;;;;6.53;1.10;;;;;;;;;;5112136;28;20045;-80
2022/09/03 08:09:31;;;;;;;4.00;1.00;;;;;;;;;;5112039;28;20115;-80
2022/09/03 08:11:57;;;;;;;7.15;0.95;;;;;;;;;;5112096;28;20102;-80
2022/09/03 08:14:24;;;;;;;2.15;0.98;;;;;;;;;;5112167;28;20036;-80
2022/09/03 08:16:50;;;;;;;3.92;1.10;;;;;;;;;;5111899;28;20015;-80
2022/09/03 08:19:19;;;;;;;4.15;1.00;;;;;;;;;;5111681;28;20414;-80
2022/09/03 08:21:46;;;;;;;5.45;0.90;;;;;;;;;;5112186;28;20485;-80
2022/09/03 08:24:12;;;;;;;4.47;0.80;;;;;;;;;;5111874;28;20421;-80
2022/09/03 08:26:41;;;;;;;5.50;0.95;;;;;;;;;;5112291;28;20031;-80
2022/09/03 08:29:07;;;;;;;3.67;1.08;;;;;;;;;;5113628;28;20055;-80
2022/09/03 08:31:35;;;;;;;4.53;1.05;;;;;;;;;;5115644;28;20039;-80
2022/09/03 08:34:05;;;;;;;2.92;0.95;;;;;;;;;;5115820;28;20103;-80
2022/09/03 08:36:32;;;;;;;2.15;1.15;;;;;;;;;;5115678;28;20016;-80
2022/09/03 08:39:02;;;;;;;2.67;1.00;;;;;;;;;;5097053;28;20382;-80
2022/09/03 08:41:47;;;;;;;10.45;1.23;;;;;;;;;;5115678;28;20023;-80
2022/09/03 08:44:32;;;;;;;3.60;0.80;;;;;;;;;;5115820;28;20023;-80
2022/09/03 08:47:05;;;;;;;4.50;0.80;;;;;;;;;;5115439;28;20446;-80
2022/09/03 08:49:50;;;;;;;2.63;0.80;;;;;;;;;;5096832;28;20019;-80
2022/09/03 08:52:31;;;;;;;6.28;0.95;;;;;;;;;;5115738;28;20036;-80
2022/09/03 08:55:07;;;;;;;3.35;0.80;;;;;;;;;;5115103;28;20028;-80
2022/09/03 08:57:45;;;;;;;10.60;1.08;;;;;;;;;;5115162;28;20581;-80
2022/09/03 09:00:12;;;;;;;3.65;0.82;;;;;;;;;;5115147;28;20144;-80
2022/09/03 09:02:48;;;;;;;3.72;0.88;;;;;;;;;;5114962;28;20091;-80
2022/09/03 09:05:18;;;;;;;5.05;0.93;;;;;;;;;;5115082;28;20054;-80
2022/09/03 09:07:52;;;;;;;7.75;0.80;;;;;;;;;;5115033;28;20023;-80
2022/09/03 09:10:36;;;;;;;6.72;0.80;;;;;;;;;;5114827;28;20040;-80
2022/09/03 09:13:08;;;;;;;4.88;0.80;;;;;;;;;;5114994;28;20015;-80
2022/09/03 09:15:34;;;;;;;;;;;;;;;;;;5115239;28;20149;-80
2022/09/03 09:18:13;;;;;;;1.95;0.75;;;;;;;;;;5114925;28;20342;-80
2022/09/03 09:20:50;;;;;;;4.82;0.90;;;;;;;;;;5114750;28;20557;-80
2022/09/03 09:23:24;;;;;;;9.25;0.85;;;;;;;;;;5114782;28;20020;-80
2022/09/03 09:25:51;;;;;;;4.35;0.82;;;;;;;;;;5114923;28;20020;-80
2022/09/03 09:28:19;;;;;;;2.55;0.90;;;;;;;;;;5114678;28;20035;-80
2022/09/03 09:30:46;;;;;;;3.90;0.85;;;;;;;;;;5114575;28;20380;-81
2022/09/03 09:33:13;;;;;;;4.03;0.90;;;;;;;;;;5114565;28;20016;-81
2022/09/03 09:35:41;;;;;;;1.90;0.90;;;;;;;;;;5114562;28;20077;-81
2022/09/03 09:38:08;;;;;;;4.10;1.00;;;;;;;;;;5114565;28;20045;-81
2022/09/03 09:40:38;;;;;;;2.20;0.80;;;;;;;;;;5113806;28;20389;-81
2022/09/03 09:43:11;;;;;;;4.80;0.85;;;;;;;;;;5096084;28;20077;-80
2022/09/03 09:45:36;;;;;;;;;;;;;;;;;;5114569;28;20176;-80
2022/09/03 09:48:09;;;;;;;2.63;0.63;;;;;;;;;;5114814;28;19994;-80
2022/09/03 09:50:35;;;;;;;3.92;0.77;;;;;;;;;;5114338;28;20020;-80
2022/09/03 09:53:04;;;;;;;3.10;0.75;;;;;;;;;;5114250;28;20032;-80
2022/09/03 09:55:31;;;;;;;5.30;0.80;;;;;;;;;;5113967;28;20054;-80
2022/09/03 09:58:09;;;;;;;8.88;0.80;;;;;;;;;;5113852;28;20027;-80
2022/09/03 10:00:36;;;;;;;2.50;0.90;;;;;;;;;;5114084;28;20027;-80
2022/09/03 10:03:06;;;;;;;3.08;0.68;;;;;;;;;;5113995;28;20058;-81
2022/09/03 10:05:33;;;;;;;3.35;1.10;;;;;;;;;;5113832;28;20027;-81
2022/09/03 10:08:18;;;;;;;4.82;0.68;;;;;;;;;;5113704;28;20020;-81
2022/09/03 10:10:48;;;;;;;7.38;0.90;;;;;;;;;;5113724;28;20054;-81
2022/09/03 10:13:18;;;;;;;5.43;0.70;;;;;;;;;;5113821;28;20031;-81
2022/09/03 10:15:49;;;;;;;5.40;0.88;;;;;;;;;;5113598;28;20012;-81
2022/09/03 10:18:27;;;;;;;3.33;0.80;;;;;;;;;;5113740;28;20019;-80
2022/09/03 10:21:01;;;;;;;7.97;1.15;;;;;;;;;;5113290;28;20425;-81
2022/09/03 10:23:27;;;;;;;4.57;0.73;;;;;;;;;;5094973;28;20108;-81
2022/09/03 10:25:59;;;;;;;4.30;0.90;;;;;;;;;;5113579;28;20023;-80
2022/09/03 10:28:26;;;;;;;2.07;0.70;;;;;;;;;;5113543;28;20019;-81
2022/09/03 10:30:55;;;;;;;3.80;0.75;;;;;;;;;;5113392;28;20434;-81
2022/09/03 10:33:33;;;;;;;4.68;0.80;;;;;;;;;;5113207;28;20020;-81
2022/09/03 10:36:21;;;;;;;2.42;0.70;;;;;;;;;;5113376;28;20019;-81
2022/09/03 10:39:00;;;;;;;4.68;0.90;;;;;;;;;;5113205;28;20050;-81
2022/09/03 10:41:27;;;;;;;6.50;0.80;;;;;;;;;;5113328;28;20450;-81
2022/09/03 10:43:53;;;;;;;2.47;0.60;;;;;;;;;;5113222;28;20032;-81
2022/09/03 10:46:25;;;;;;;3.63;0.70;;;;;;;;;;5112931;28;20046;-81
2022/09/03 10:49:02;;;;;;;2.58;0.90;;;;;;;;;;5113063;28;20020;-81
2022/09/03 10:51:36;;;;;;;14.15;2.15;;;;;;;;;;5112416;28;20028;-81
2022/09/03 10:54:02;;;;;;;3.17;0.68;;;;;;;;;;5112972;28;20028;-81
2022/09/03 10:56:28;;;;;;;2.40;1.25;;;;;;;;;;5094490;28;20047;-81
2022/09/03 10:59:09;;;;;;;5.78;0.88;;;;;;;;;;5112983;28;20062;-81
2022/09/03 11:01:42;;;;;;;2.97;0.90;;;;;;;;;;5109002;28;20024;-81
2022/09/03 11:04:13;;;;;;;4.72;0.63;;;;;;;;;;5092340;28;20039;-81
2022/09/03 11:06:57;;;;;;;7.75;0.85;;;;;;;;;;5092392;28;20095;-81
2022/09/03 11:09:27;;;;;;;5.50;0.95;;;;;;;;;;5092220;28;20044;-81
2022/09/03 11:11:56;;;;;;;4.53;0.90;;;;;;;;;;5092619;28;20107;-81
2022/09/03 11:14:35;;;;;;;7.13;0.63;;;;;;;;;;5092300;28;20032;-81
2022/09/03 11:17:08;;;;;;;3.58;0.95;;;;;;;;;;5092498;28;20028;-81
2022/09/03 11:19:40;;;;;;;2.85;0.93;;;;;;;;;;5092204;28;20024;-81
2022/09/03 11:22:06;;;;;;;;;;;;;;;;;;5092781;28;20016;-81
2022/09/03 11:24:33;;;;;;;5.38;0.70;;;;;;;;;;5092263;28;20350;-81
2022/09/03 11:26:59;;;;;;;2.05;0.77;;;;;;;;;;5092157;28;20020;-81
2022/09/03 11:29:35;;;;;;;3.17;0.90;;;;;;;;;;5092199;28;20024;-81
2022/09/03 11:32:06;;;;;;;2.85;0.90;;;;;;;;;;5092168;28;20099;-81
2022/09/03 11:34:44;;;;;;;2.23;0.80;;;;;;;;;;5092216;28;20024;-81
2022/09/03 11:37:13;;;;;;;3.20;0.80;;;;;;;;;;5092191;28;20047;-81
2022/09/03 11:39:39;;;;;;;9.45;1.13;;;;;;;;;;5092794;28;20073;-81
2022/09/03 11:42:10;;;;;;;8.57;0.90;;;;;;;;;;5112791;28;20023;-81
2022/09/03 11:44:38;;;;;;;4.10;0.83;;;;;;;;;;5112711;28;20020;-81
2022/09/03 11:47:14;;;;;;;5.75;0.90;;;;;;;;;;5112464;28;20039;-81
2022/09/03 11:49:44;;;;;;;2.10;0.70;;;;;;;;;;5112530;28;20036;-81
2022/09/03 11:52:11;;;;;;;2.63;0.95;;;;;;;;;;5112831;28;20516;-81
2022/09/03 11:54:44;;;;;;;3.95;0.70;;;;;;;;;;5112282;28;20035;-81
2022/09/03 11:57:22;;;;;;;2.65;0.93;;;;;;;;;;5112492;28;20103;-81
2022/09/03 11:59:49;;;;;;;5.75;0.73;;;;;;;;;;5112357;28;20363;-81
2022/09/03 12:02:26;;;;;;;3.13;0.88;;;;;;;;;;5112616;28;20044;-81
2022/09/03 12:04:52;;;;;;;0.98;0.52;;;;;;;;;;5116216;28;20024;-81
2022/09/03 12:07:20;;;;;;;2.88;0.70;;;;;;;;;;5116462;28;20031;-81
2022/09/03 12:09:56;;;;;;;5.35;0.90;;;;;;;;;;5116301;28;20043;-81
2022/09/03 12:12:32;;;;;;;2.30;0.90;;;;;;;;;;5115993;28;20019;-81
2022/09/03 12:15:18;;;;;;;3.58;1.05;;;;;;;;;;5116025;28;20469;-81
2022/09/03 12:20:42;;;;;;;6.65;0.90;;;;;;;;;;5100127;28;20032;-81
2022/09/03 12:23:10;;;;;;;1.95;0.80;;;;;;;;;;5095572;28;20043;-81
2022/09/03 12:25:46;;;;;;;3.85;0.90;;;;;;;;;;5095177;28;20112;-81
2022/09/03 12:28:12;;;;;;;6.05;1.20;;;;;;;;;;5095534;28;20051;-81
2022/09/03 12:30:38;;;;;;;4.22;1.00;;;;;;;;;;5095342;28;20025;-81
2022/09/03 12:33:05;;;;;;;10.23;1.10;;;;;;;;;;5094998;28;20080;-81
2022/09/03 12:35:31;;;;;;;4.60;0.88;;;;;;;;;;5095130;28;20482;-81
2022/09/03 12:37:57;;;;;;;2.35;0.90;;;;;;;;;;5094936;28;20037;-81
2022/09/03 12:40:25;;;;;;;2.92;0.90;;;;;;;;;;5094979;28;20458;-81
2022/09/03 12:42:51;;;;;;;5.97;0.90;;;;;;;;;;5095269;28;20024;-81
2022/09/03 12:45:19;;;;;;;2.33;0.90;;;;;;;;;;5076614;28;20407;-81
2022/09/03 12:47:45;;;;;;;3.30;0.90;;;;;;;;;;5095215;28;20133;-81
2022/09/03 12:50:13;;;;;;;2.10;1.00;;;;;;;;;;5094865;28;20091;-81
2022/09/03 12:52:45;;;;;;;4.60;0.95;;;;;;;;;;5094762;28;20035;-80
2022/09/03 12:55:30;;;;;;;4.72;1.00;;;;;;;;;;5094884;28;20028;-81
2022/09/03 12:58:01;;;;;;;5.65;0.77;;;;;;;;;;5094684;28;20024;-81
2022/09/03 13:00:28;;;;;;;3.63;1.08;;;;;;;;;;5094932;28;20024;-82
2022/09/03 13:03:06;;;;;;;3.80;0.88;;;;;;;;;;5109670;28;20065;-82
2022/09/03 13:05:34;;;;;;;4.40;1.10;;;;;;;;;;5115186;28;20166;-82
2022/09/03 13:08:04;;;;;;;4.70;1.20;;;;;;;;;;5115165;28;20363;-82
2022/09/03 13:10:36;;;;;;;3.97;0.80;;;;;;;;;;5114744;28;20062;-81
2022/09/03 13:13:19;;;;;;;2.65;0.90;;;;;;;;;;5115009;28;20027;-81
2022/09/03 13:16:00;;;;;;;4.32;1.00;;;;;;;;;;5114165;28;20366;-81
2022/09/03 13:18:26;;;;;;;2.40;1.00;;;;;;;;;;5114855;28;20031;-81
2022/09/03 13:21:18;;;;;;;5.00;1.20;;;;;;;;;;5114991;28;20310;-81
2022/09/03 13:23:44;;;;;;;;;;;;;;;;;;5096710;28;20362;-81
2022/09/03 13:26:21;;;;;;;2.45;0.85;;;;;;;;;;5114743;28;19903;-81
2022/09/03 13:28:51;;;;;;;3.83;0.85;;;;;;;;;;5114509;28;20129;-81
2022/09/03 13:31:36;;;;;;;3.75;0.95;;;;;;;;;;5114451;28;20016;-81
2022/09/03 13:34:10;;;;;;;3.22;1.30;;;;;;;;;;5114793;28;20020;-81
2022/09/03 13:36:42;;;;;;;4.13;0.80;;;;;;;;;;5114193;28;20055;-81
2022/09/03 13:39:31;;;;;;;5.03;1.13;;;;;;;;;;5114501;28;20027;-81
2022/09/03 13:42:17;;;;;;;2.63;0.90;;;;;;;;;;5083137;28;20044;-81
2022/09/03 13:44:58;;;;;;;4.53;1.73;;;;;;;;;;5093970;28;20035;-81
2022/09/03 13:47:24;;;;;;;2.13;1.10;;;;;;;;;;5093921;28;20026;-81
2022/09/03 13:53:03;;;;;;;5.72;0.93;;;;;;;;;;5094002;28;20051;-81
2022/09/03 13:55:41;;;;;;;5.63;1.08;;;;;;;;;;5093469;28;20020;-81
2022/09/03 13:58:17;;;;;;;3.13;1.10;;;;;;;;;;5093752;28;20025;-81
2022/09/03 14:00:46;;;;;;;3.17;1.02;;;;;;;;;;5093553;28;20024;-81
2022/09/03 14:03:15;;;;;;;2.05;0.93;;;;;;;;;;5093186;28;20409;-81
2022/09/03 14:06:00;;;;;;;3.67;1.10;;;;;;;;;;5093437;28;20020;-81
2022/09/03 14:08:50;;;;;;;7.47;1.20;;;;;;;;;;5075152;28;20030;-81
2022/09/03 14:11:22;;;;;;;3.30;1.10;;;;;;;;;;5093050;28;20130;-81
2022/09/03 14:14:07;;;;;;;5.45;1.27;;;;;;;;;;5093376;28;20074;-81
2022/09/03 14:16:39;;;;;;;2.97;1.17;;;;;;;;;;5092962;28;20224;-81
2022/09/03 14:19:34;;;;;;;4.43;0.88;;;;;;;;;;5108153;28;20016;-82
2022/09/03 14:22:11;;;;;;;9.48;1.80;;;;;;;;;;5075416;28;20028;-81
2022/09/03 14:24:48;;;;;;;10.55;1.00;;;;;;;;;;5093118;28;20411;-82
2022/09/03 14:27:22;;;;;;;2.25;1.25;;;;;;;;;;5092870;28;20031;-81
2022/09/03 14:29:59;;;;;;;5.85;2.15;;;;;;;;;;5074520;28;20107;-81
2022/09/03 14:32:35;;;;;;;5.18;1.20;;;;;;;;;;5093170;28;20024;-81
2022/09/03 14:35:01;;;;;;;8.40;1.20;;;;;;;;;;5092973;28;20024;-81
2022/09/03 14:37:30;;;;;;;4.68;1.10;;;;;;;;;;5074341;28;20382;-81
2022/09/03 14:40:15;;;;;;;1.25;0.90;;;;;;;;;;5092821;28;20027;-81
2022/09/03 14:42:56;;;;;;;1.90;1.00;;;;;;;;;;5074282;28;20124;-81
2022/09/03 14:45:26;;;;;;;7.60;1.17;;;;;;;;;;5092808;28;20058;-81
2022/09/03 14:48:01;;;;;;;3.97;0.93;;;;;;;;;;5092606;28;20069;-81
2022/09/03 14:50:43;;;;;;;9.70;1.08;;;;;;;;;;5092666;28;20024;-81
2022/09/03 14:53:37;;;;;;;8.38;1.40;;;;;;;;;;5092843;28;20056;-81
2022/09/03 14:56:10;;;;;;;6.18;1.25;;;;;;;;;;5092662;28;20168;-81
2022/09/03 14:58:42;;;;;;;5.30;1.30;;;;;;;;;;5092389;28;20020;-81
2022/09/03 15:01:13;;;;;;;6.40;1.10;;;;;;;;;;5092276;28;20024;-81
2022/09/03 15:03:48;;;;;;;7.32;1.30;;;;;;;;;;5092357;28;20027;-81
2022/09/03 15:06:32;;;;;;;5.47;1.10;;;;;;;;;;5092284;28;20024;-81
2022/09/03 15:09:17;;;;;;;5.60;1.20;;;;;;;;;;5092400;28;20027;-81